createdAt,value
2023-09-03T00:00:19.435Z,61.45
2023-09-03T00:02:49.898Z,60.14
2023-09-03T00:05:19.696Z,59.91
2023-09-03T00:07:54.057Z,61.21
2023-09-03T00:10:21.954Z,64.49
2023-09-03T00:12:55.842Z,63.44
2023-09-03T00:15:26.451Z,63.14
2023-09-03T00:17:58.661Z,66.58
2023-09-03T00:20:28.611Z,63.03
2023-09-03T00:23:16.752Z,61.80
2023-09-03T00:25:45.561Z,61.43
2023-09-03T00:28:13.764Z,61.33
2023-09-03T00:30:43.038Z,64.15
2023-09-03T00:33:14.608Z,63.80
2023-09-03T00:35:46.974Z,63.55
2023-09-03T00:38:20.563Z,62.18
2023-09-03T00:40:49.138Z,61.71
2023-09-03T00:46:07.846Z,75.03
2023-09-03T00:48:37.807Z,78.76
2023-09-03T00:51:11.316Z,74.20
2023-09-03T00:53:49.555Z,74.14
2023-09-03T00:56:19.870Z,70.31
2023-09-03T00:58:48.555Z,67.97
2023-09-03T01:01:17.127Z,70.67
2023-09-03T01:03:45.179Z,68.29
2023-09-03T01:06:14.351Z,66.93
2023-09-03T01:08:48.577Z,72.31
2023-09-03T01:11:21.973Z,69.41
2023-09-03T01:14:41.112Z,65.90
2023-09-03T01:17:47.529Z,64.23
2023-09-03T01:20:27.648Z,63.76
2023-09-03T01:24:08.214Z,62.99
2023-09-03T01:27:25.910Z,66.03
2023-09-03T01:30:00.341Z,65.49
2023-09-03T01:32:28.903Z,63.81
2023-09-03T01:34:58.606Z,63.21
2023-09-03T01:37:27.361Z,62.65
2023-09-03T01:43:28.591Z,61.66
2023-09-03T01:46:23.768Z,62.43
2023-09-03T01:53:26.107Z,62.63
2023-09-03T01:56:00.370Z,61.70
2023-09-03T01:58:37.236Z,61.61
2023-09-03T02:01:12.037Z,61.22
2023-09-03T02:03:46.913Z,61.22
2023-09-03T02:06:21.662Z,61.63
2023-09-03T02:08:55.524Z,64.32
2023-09-03T02:11:24.039Z,68.56
2023-09-03T02:13:52.458Z,67.00
2023-09-03T02:16:22.507Z,66.77
2023-09-03T02:18:50.809Z,65.85
2023-09-03T02:21:21.635Z,66.16
2023-09-03T02:23:58.915Z,68.01
2023-09-03T02:26:29.620Z,66.20
2023-09-03T02:28:57.861Z,65.91
2023-09-03T02:31:32.161Z,65.50
2023-09-03T02:34:07.537Z,70.16
2023-09-03T02:36:36.266Z,67.05
2023-09-03T02:39:06.895Z,65.56
2023-09-03T02:41:38.108Z,64.09
2023-09-03T02:44:08.244Z,63.50
2023-09-03T02:46:39.787Z,63.28
2023-09-03T02:49:11.359Z,62.44
2023-09-03T02:51:41.126Z,63.40
2023-09-03T02:54:09.878Z,63.01
2023-09-03T02:56:38.194Z,62.52
2023-09-03T02:59:09.654Z,62.24
2023-09-03T03:04:23.593Z,63.46
2023-09-03T03:06:51.973Z,62.77
2023-09-03T03:09:32.771Z,62.45
2023-09-03T03:12:04.077Z,61.87
2023-09-03T03:14:35.195Z,62.00
2023-09-03T03:17:09.788Z,62.01
2023-09-03T03:19:38.148Z,61.95
2023-09-03T03:22:13.565Z,62.43
2023-09-03T03:24:45.098Z,62.12
2023-09-03T03:27:21.250Z,62.15
2023-09-03T03:29:49.809Z,62.20
2023-09-03T03:32:21.099Z,62.24
2023-09-03T03:34:56.632Z,61.74
2023-09-03T03:37:29.745Z,61.51
2023-09-03T03:40:07.660Z,61.89
2023-09-03T03:42:41.329Z,61.66
2023-09-03T03:45:10.458Z,62.58
2023-09-03T03:47:44.992Z,62.12
2023-09-03T03:50:16.582Z,62.70
2023-09-03T03:52:45.387Z,62.03
2023-09-03T03:55:13.762Z,61.26
2023-09-03T03:57:42.788Z,61.26
2023-09-03T04:00:11.630Z,61.62
2023-09-03T04:02:40.615Z,61.69
2023-09-03T04:05:09.176Z,63.02
2023-09-03T04:07:44.384Z,62.63
2023-09-03T04:10:12.721Z,62.84
2023-09-03T04:13:31.413Z,62.95
2023-09-03T04:16:12.160Z,62.60
2023-09-03T04:18:42.241Z,62.02
2023-09-03T04:21:11.084Z,61.40
2023-09-03T04:23:41.024Z,61.46
2023-09-03T04:26:10.645Z,61.26
2023-09-03T04:28:52.860Z,60.86
2023-09-03T04:31:21.298Z,62.39
2023-09-03T04:34:01.933Z,63.79
2023-09-03T04:36:30.825Z,63.10
2023-09-03T04:39:02.365Z,62.28
2023-09-03T04:41:30.747Z,61.66
2023-09-03T04:44:13.962Z,61.63
2023-09-03T04:46:46.415Z,62.33
2023-09-03T04:52:06.022Z,62.22
2023-09-03T04:54:34.663Z,62.20
2023-09-03T04:57:04.225Z,62.35
2023-09-03T04:59:35.385Z,61.60
2023-09-03T05:02:05.408Z,61.57
2023-09-03T05:04:36.954Z,61.23
2023-09-03T05:07:06.518Z,61.23
2023-09-03T05:09:38.036Z,61.37
2023-09-03T05:12:06.925Z,60.96
2023-09-03T05:14:35.503Z,60.95
2023-09-03T05:17:03.928Z,61.18
2023-09-03T05:19:32.511Z,60.78
2023-09-03T05:22:01.917Z,60.86
2023-09-03T05:24:30.490Z,61.68
2023-09-03T05:27:04.588Z,61.33
2023-09-03T05:29:33.153Z,61.06
2023-09-03T05:32:01.906Z,61.23
2023-09-03T05:34:55.776Z,61.15
2023-09-03T05:37:29.285Z,61.32
2023-09-03T05:39:59.671Z,61.30
2023-09-03T05:42:29.510Z,62.39
2023-09-03T05:45:05.365Z,63.50
2023-09-03T05:47:40.068Z,62.55
2023-09-03T05:50:09.394Z,63.03
2023-09-03T05:52:37.777Z,63.13
2023-09-03T05:55:13.855Z,63.19
2023-09-03T05:57:43.402Z,62.67
2023-09-03T06:00:12.289Z,62.84
2023-09-03T06:02:50.449Z,63.10
2023-09-03T06:05:20.919Z,62.70
2023-09-03T06:07:50.113Z,69.61
2023-09-03T06:10:30.677Z,76.25
2023-09-03T06:12:59.012Z,70.65
2023-09-03T06:15:27.338Z,67.07
2023-09-03T06:17:55.680Z,65.63
2023-09-03T06:20:25.671Z,65.94
2023-09-03T06:22:55.305Z,72.10
2023-09-03T06:25:28.852Z,75.72
2023-09-03T06:30:42.748Z,78.79
2023-09-03T06:33:41.865Z,72.39
2023-09-03T06:36:22.229Z,71.30
2023-09-03T06:39:15.835Z,75.73
2023-09-03T06:41:46.946Z,78.14
2023-09-03T06:44:29.868Z,84.00
2023-09-03T06:47:03.842Z,85.61
2023-09-03T06:49:53.960Z,79.79
2023-09-03T06:53:14.236Z,74.39
2023-09-03T06:58:28.872Z,74.45
2023-09-03T07:01:00.097Z,77.43
2023-09-03T07:03:27.911Z,74.48
2023-09-03T07:05:56.375Z,72.53
2023-09-03T07:08:25.611Z,72.15
2023-09-03T07:11:01.181Z,71.68
2023-09-03T07:13:29.188Z,71.77
2023-09-03T07:15:57.678Z,76.22
2023-09-03T07:18:26.074Z,79.01
2023-09-03T07:21:08.423Z,78.18
2023-09-03T07:24:01.937Z,82.21
2023-09-03T07:26:33.111Z,77.51
2023-09-03T07:29:05.026Z,76.08
2023-09-03T07:31:42.006Z,80.79
2023-09-03T07:34:37.315Z,76.07
2023-09-03T07:37:09.669Z,74.16
2023-09-03T07:39:40.965Z,76.50
2023-09-03T07:42:14.600Z,75.55
2023-09-03T07:44:43.903Z,82.06
2023-09-03T07:47:18.032Z,77.17
2023-09-03T07:49:49.233Z,77.54
2023-09-03T07:52:18.741Z,75.52
2023-09-03T07:54:47.080Z,73.73
2023-09-03T07:57:17.785Z,74.89
2023-09-03T07:59:46.195Z,76.28
2023-09-03T08:02:18.718Z,74.37
2023-09-03T08:04:48.701Z,72.98
2023-09-03T08:07:20.357Z,72.23
2023-09-03T08:09:49.072Z,72.53
2023-09-03T08:12:51.811Z,73.37
2023-09-03T08:15:33.535Z,71.81
2023-09-03T08:18:06.342Z,72.69
2023-09-03T08:20:36.264Z,71.28
2023-09-03T08:23:05.031Z,71.19
2023-09-03T08:25:42.905Z,71.42
2023-09-03T08:28:16.147Z,72.64
2023-09-03T08:30:44.500Z,70.30
2023-09-03T08:33:14.234Z,71.28
2023-09-03T08:35:48.673Z,70.93
2023-09-03T08:38:43.081Z,70.08
2023-09-03T08:41:19.962Z,69.63
2023-09-03T08:43:55.324Z,69.03
2023-09-03T08:46:31.136Z,67.85
2023-09-03T08:49:27.423Z,69.15
2023-09-03T08:51:59.593Z,68.48
2023-09-03T08:54:28.537Z,68.30
2023-09-03T08:56:58.401Z,67.19
2023-09-03T08:59:26.819Z,66.41
2023-09-03T09:01:56.060Z,65.39
2023-09-03T09:04:31.541Z,64.96
2023-09-03T09:07:01.145Z,64.44
2023-09-03T09:09:30.852Z,63.53
2023-09-03T09:12:43.254Z,62.14
2023-09-03T09:15:11.667Z,61.95
2023-09-03T09:17:44.563Z,61.64
2023-09-03T09:20:15.851Z,61.57
2023-09-03T09:22:51.197Z,62.35
2023-09-03T09:25:36.449Z,61.29
2023-09-03T09:28:14.203Z,60.12
2023-09-03T09:30:58.653Z,61.35
2023-09-03T09:33:28.652Z,60.26
2023-09-03T09:36:14.616Z,58.97
2023-09-03T09:38:43.003Z,59.32
2023-09-03T09:41:39.233Z,56.96
2023-09-03T09:44:32.547Z,54.41
2023-09-03T09:47:34.417Z,52.36
2023-09-03T09:50:02.955Z,51.58
2023-09-03T09:52:56.162Z,51.88
2023-09-03T09:55:27.275Z,51.85
2023-09-03T09:57:55.581Z,49.57
2023-09-03T10:00:44.632Z,52.64
2023-09-03T10:03:16.912Z,51.65
2023-09-03T10:05:51.655Z,52.95
2023-09-03T10:08:20.136Z,52.66
2023-09-03T10:10:49.505Z,53.33
2023-09-03T10:13:33.165Z,52.60
2023-09-03T10:16:12.103Z,50.51
2023-09-03T10:19:03.682Z,50.69
2023-09-03T10:21:52.552Z,51.90
2023-09-03T10:24:23.260Z,49.73
2023-09-03T10:27:22.533Z,49.76
2023-09-03T10:29:51.509Z,48.30
2023-09-03T10:32:21.829Z,45.91
2023-09-03T10:34:50.730Z,44.12
2023-09-03T10:37:31.205Z,46.10
2023-09-03T10:40:27.523Z,45.51
2023-09-03T10:43:20.484Z,43.16
2023-09-03T10:46:14.868Z,40.57
2023-09-03T10:49:00.417Z,40.55
2023-09-03T10:51:35.898Z,40.60
2023-09-03T10:54:21.642Z,39.86
2023-09-03T10:57:15.292Z,41.96
2023-09-03T11:00:03.945Z,39.87
2023-09-03T11:02:48.501Z,40.60
2023-09-03T11:06:20.136Z,39.24
2023-09-03T11:09:13.947Z,37.21
2023-09-03T11:11:48.231Z,37.51
2023-09-03T11:15:33.581Z,36.85
2023-09-03T11:18:06.762Z,37.99
2023-09-03T11:20:50.372Z,38.43
2023-09-03T11:23:23.222Z,39.13
2023-09-03T11:25:52.253Z,38.96
2023-09-03T11:28:23.265Z,40.30
2023-09-03T11:31:04.343Z,38.81
2023-09-03T11:33:35.448Z,36.83
2023-09-03T11:36:30.184Z,33.26
2023-09-03T11:39:01.180Z,32.49
2023-09-03T11:41:31.148Z,33.42
2023-09-03T11:44:10.653Z,30.51
2023-09-03T11:46:38.664Z,32.51
2023-09-03T11:49:22.735Z,33.02
2023-09-03T11:51:53.448Z,31.08
2023-09-03T11:54:38.029Z,30.67
2023-09-03T11:57:07.855Z,31.68
2023-09-03T11:59:44.401Z,28.58
2023-09-03T12:02:13.409Z,27.92
2023-09-03T12:04:44.217Z,27.03
2023-09-03T12:07:45.146Z,27.03
2023-09-03T12:10:21.492Z,27.79
2023-09-03T12:12:50.089Z,26.29
2023-09-03T12:15:23.503Z,27.28
2023-09-03T12:17:53.133Z,27.50
2023-09-03T12:20:48.319Z,26.32
2023-09-03T12:23:46.879Z,26.72
2023-09-03T12:26:24.865Z,24.58
2023-09-03T12:28:56.428Z,24.66
2023-09-03T12:31:53.957Z,28.68
2023-09-03T12:34:37.619Z,100.00
2023-09-03T12:37:09.264Z,100.00
2023-09-03T12:40:07.066Z,100.00
2023-09-03T12:42:38.250Z,100.00
2023-09-03T12:45:09.081Z,100.00
2023-09-03T12:47:46.566Z,100.00
2023-09-03T12:50:15.204Z,100.00
2023-09-03T12:53:08.573Z,100.00
2023-09-03T12:55:40.455Z,28.68
2023-09-03T12:58:11.985Z,28.68
2023-09-03T13:00:46.166Z,23.57
2023-09-03T13:03:19.467Z,100.00
2023-09-03T13:05:48.219Z,100.00
2023-09-03T13:08:18.026Z,100.00
2023-09-03T13:11:01.927Z,100.00
2023-09-03T13:13:55.682Z,24.00
2023-09-03T13:16:30.264Z,100.00
2023-09-03T13:19:00.728Z,24.00
2023-09-03T13:21:36.633Z,21.85
2023-09-03T13:24:30.353Z,100.00
2023-09-03T13:27:01.468Z,100.00
2023-09-03T13:29:32.416Z,21.85
2023-09-03T13:32:09.573Z,22.69
2023-09-03T13:34:49.552Z,20.99
2023-09-03T13:37:20.773Z,20.66
2023-09-03T13:39:49.724Z,21.96
2023-09-03T13:42:20.896Z,19.97
2023-09-03T13:48:07.135Z,22.42
2023-09-03T13:50:41.351Z,22.73
2023-09-03T13:53:09.594Z,22.42
2023-09-03T13:55:52.937Z,22.51
2023-09-03T13:58:35.402Z,21.49
2023-09-03T14:01:32.375Z,22.28
2023-09-03T14:04:00.887Z,22.35
2023-09-03T14:06:29.420Z,21.52
2023-09-03T14:08:59.039Z,22.30
2023-09-03T14:11:31.551Z,21.74
2023-09-03T14:13:59.848Z,22.24
2023-09-03T14:16:34.132Z,22.43
2023-09-03T14:19:02.696Z,23.58
2023-09-03T14:21:33.616Z,23.92
2023-09-03T14:24:11.849Z,23.30
2023-09-03T14:26:58.280Z,24.12
2023-09-03T14:29:36.356Z,25.26
2023-09-03T14:32:23.899Z,23.44
2023-09-03T14:34:52.248Z,25.43
2023-09-03T14:37:29.041Z,26.30
2023-09-03T14:39:57.494Z,25.29
2023-09-03T14:42:28.889Z,25.46
2023-09-03T14:44:58.635Z,24.71
2023-09-03T14:49:09.347Z,25.05
2023-09-03T14:51:38.678Z,24.56
2023-09-03T14:54:11.865Z,24.40
2023-09-03T14:57:08.858Z,24.44
2023-09-03T15:00:04.127Z,24.74
2023-09-03T15:03:01.206Z,25.96
2023-09-03T15:05:30.590Z,26.61
2023-09-03T15:08:07.764Z,29.14
2023-09-03T15:10:44.124Z,29.77
2023-09-03T15:13:37.324Z,29.29
2023-09-03T15:16:09.312Z,29.52
2023-09-03T15:18:38.890Z,28.19
2023-09-03T15:21:12.637Z,28.13
2023-09-03T15:30:46.693Z,27.85
2023-09-03T15:33:21.073Z,28.99
2023-09-03T15:36:14.651Z,29.40
2023-09-03T15:39:14.053Z,28.56
2023-09-03T15:41:45.548Z,28.46
2023-09-03T15:50:06.080Z,29.91
2023-09-03T15:52:37.529Z,30.25
2023-09-03T15:55:09.088Z,29.47
2023-09-03T15:57:52.143Z,30.13
2023-09-03T16:00:26.839Z,29.79
2023-09-03T16:05:57.578Z,30.33
2023-09-03T16:09:14.411Z,30.70
2023-09-03T16:12:11.509Z,31.11
2023-09-03T16:17:43.020Z,31.23
2023-09-03T16:20:38.310Z,31.94
2023-09-03T16:26:34.253Z,33.67
2023-09-03T16:29:56.430Z,33.23
2023-09-03T16:32:26.597Z,32.57
2023-09-03T16:35:01.296Z,32.90
2023-09-03T16:37:54.868Z,32.67
2023-09-03T16:40:23.228Z,32.67
2023-09-03T16:42:51.593Z,33.58
2023-09-03T16:45:19.883Z,33.68
2023-09-03T16:47:49.066Z,33.70
2023-09-03T16:50:17.638Z,34.04
2023-09-03T16:52:45.968Z,33.83
2023-09-03T16:55:15.636Z,33.83
2023-09-03T16:57:43.928Z,33.79
2023-09-03T17:00:13.573Z,34.13
2023-09-03T17:02:41.895Z,34.28
2023-09-03T17:05:10.396Z,33.94
2023-09-03T17:07:38.703Z,33.93
2023-09-03T17:10:07.887Z,33.59
2023-09-03T17:12:49.163Z,33.53
2023-09-03T17:15:17.900Z,33.37
2023-09-03T17:17:46.524Z,33.37
2023-09-03T17:20:14.874Z,33.97
2023-09-03T17:22:43.179Z,34.71
2023-09-03T17:25:11.482Z,34.95
2023-09-03T17:27:39.766Z,35.08
2023-09-03T17:30:08.727Z,35.17
2023-09-03T17:32:37.147Z,35.58
2023-09-03T17:35:05.351Z,36.47
2023-09-03T17:37:35.144Z,37.57
2023-09-03T17:40:08.031Z,37.80
2023-09-03T17:42:37.229Z,37.33
2023-09-03T17:45:06.416Z,38.77
2023-09-03T17:47:35.171Z,41.35
2023-09-03T17:50:11.465Z,43.41
2023-09-03T17:52:39.966Z,44.57
2023-09-03T17:55:08.919Z,45.00
2023-09-03T17:57:37.306Z,45.92
2023-09-03T18:00:06.426Z,46.59
2023-09-03T18:02:41.035Z,42.60
2023-09-03T18:05:17.555Z,42.12
2023-09-03T18:07:46.731Z,41.36
2023-09-03T18:10:15.184Z,41.30
2023-09-03T18:12:43.528Z,41.45
2023-09-03T18:15:11.960Z,46.54
2023-09-03T18:17:42.545Z,45.74
2023-09-03T18:20:11.000Z,44.60
2023-09-03T18:23:04.362Z,44.21
2023-09-03T18:25:32.783Z,46.67
2023-09-03T18:28:01.118Z,44.63
2023-09-03T18:30:29.366Z,43.96
2023-09-03T18:32:57.693Z,47.59
2023-09-03T18:35:25.948Z,51.30
2023-09-03T18:37:56.199Z,52.28
2023-09-03T18:40:28.086Z,52.59
2023-09-03T18:42:58.665Z,51.40
2023-09-03T18:45:27.110Z,46.67
2023-09-03T18:47:55.503Z,51.50
2023-09-03T18:50:23.943Z,46.74
2023-09-03T18:52:53.909Z,46.27
2023-09-03T18:55:22.331Z,45.35
2023-09-03T18:57:50.595Z,46.25
2023-09-03T19:00:18.903Z,45.06
2023-09-03T19:02:47.240Z,44.90
2023-09-03T19:05:16.593Z,45.04
2023-09-03T19:07:44.972Z,44.67
2023-09-03T19:10:14.554Z,44.54
2023-09-03T19:12:42.937Z,44.70
2023-09-03T19:15:11.398Z,44.90
2023-09-03T19:17:39.823Z,44.80
2023-09-03T19:20:08.731Z,44.92
2023-09-03T19:22:37.098Z,46.85
2023-09-03T19:25:05.852Z,45.59
2023-09-03T19:27:36.194Z,50.92
2023-09-03T19:30:05.451Z,49.58
2023-09-03T19:32:38.219Z,47.19
2023-09-03T19:35:10.027Z,51.39
2023-09-03T19:38:04.941Z,48.98
2023-09-03T19:40:33.986Z,46.96
2023-09-03T19:43:02.611Z,46.05
2023-09-03T19:45:33.925Z,45.93
2023-09-03T19:48:34.942Z,45.77
2023-09-03T19:51:05.892Z,45.24
2023-09-03T19:53:34.573Z,44.83
2023-09-03T19:56:05.204Z,45.04
2023-09-03T19:58:34.832Z,44.76
2023-09-03T20:01:12.181Z,46.45
2023-09-03T20:03:40.595Z,47.26
2023-09-03T20:06:08.882Z,46.69
2023-09-03T20:08:39.671Z,46.36
2023-09-03T20:11:14.909Z,46.35
2023-09-03T20:13:49.137Z,46.33
2023-09-03T20:16:25.778Z,46.79
2023-09-03T20:18:56.900Z,46.01
2023-09-03T20:21:25.824Z,45.49
2023-09-03T20:23:54.788Z,45.40
2023-09-03T20:26:34.432Z,45.35
2023-09-03T20:29:11.762Z,45.62
2023-09-03T20:31:59.686Z,45.28
2023-09-03T20:34:30.945Z,45.21
2023-09-03T20:36:59.797Z,45.12
2023-09-03T20:39:28.180Z,45.24
2023-09-03T20:41:56.674Z,45.06
2023-09-03T20:44:24.913Z,45.50
2023-09-03T20:46:53.366Z,45.25
2023-09-03T20:49:21.617Z,45.91
2023-09-03T20:52:15.327Z,45.18
2023-09-03T20:54:43.656Z,45.49
2023-09-03T20:57:12.788Z,45.39
2023-09-03T21:02:12.055Z,45.38
2023-09-03T21:04:41.882Z,45.50
2023-09-03T21:07:10.139Z,44.97
2023-09-03T21:10:04.375Z,45.04
2023-09-03T21:12:32.670Z,45.01
2023-09-03T21:15:01.059Z,44.95
2023-09-03T21:17:29.304Z,45.03
2023-09-03T21:19:57.586Z,46.23
2023-09-03T21:22:28.241Z,46.30
2023-09-03T21:24:56.545Z,49.00
2023-09-03T21:27:25.078Z,50.26
2023-09-03T21:29:53.381Z,50.83
2023-09-03T21:32:45.138Z,48.17
2023-09-03T21:35:23.085Z,47.74
2023-09-03T21:37:52.467Z,46.86
2023-09-03T21:40:21.129Z,46.99
2023-09-03T21:42:55.205Z,46.97
2023-09-03T21:45:23.676Z,46.91
2023-09-03T21:47:55.180Z,46.54
2023-09-03T21:50:23.918Z,46.57
2023-09-03T21:52:51.831Z,46.43
2023-09-03T21:55:20.281Z,46.23
2023-09-03T21:58:21.925Z,46.32
2023-09-03T22:00:50.523Z,46.22
2023-09-03T22:03:18.813Z,46.32
2023-09-03T22:05:47.153Z,45.93
2023-09-03T22:08:15.479Z,45.97
2023-09-03T22:10:43.731Z,46.43
2023-09-03T22:13:13.452Z,46.63
2023-09-03T22:15:41.428Z,49.23
2023-09-03T22:18:09.459Z,50.13
2023-09-03T22:20:37.876Z,48.84
2023-09-03T22:23:06.426Z,49.08
2023-09-03T22:25:35.530Z,49.99
2023-09-03T22:28:04.342Z,48.59
2023-09-03T22:30:32.162Z,47.92
2023-09-03T22:33:00.768Z,49.30
2023-09-03T22:35:28.674Z,49.63
2023-09-03T22:37:56.692Z,48.66
2023-09-03T22:40:25.370Z,47.84
2023-09-03T22:42:54.320Z,47.75
2023-09-03T22:45:25.935Z,47.58
2023-09-03T22:47:56.485Z,48.01
2023-09-03T22:50:24.603Z,47.62
2023-09-03T22:53:19.021Z,47.38
2023-09-03T22:55:47.433Z,47.28
2023-09-03T22:58:16.703Z,48.07
2023-09-03T23:00:44.819Z,49.44
2023-09-03T23:03:13.319Z,50.53
2023-09-03T23:05:41.623Z,50.23
2023-09-03T23:08:13.782Z,49.05
2023-09-03T23:10:41.933Z,49.01
2023-09-03T23:13:35.245Z,48.65
2023-09-03T23:16:03.223Z,47.98
2023-09-03T23:18:33.330Z,47.93
2023-09-03T23:21:09.529Z,50.58
2023-09-03T23:23:41.207Z,50.55
2023-09-03T23:26:09.671Z,51.68
2023-09-03T23:28:37.819Z,50.63
2023-09-03T23:31:06.677Z,50.22
2023-09-03T23:33:35.518Z,49.98
2023-09-03T23:36:03.690Z,50.12
2023-09-03T23:38:33.849Z,49.46
2023-09-03T23:41:02.645Z,48.52
2023-09-03T23:43:30.744Z,48.46
2023-09-03T23:45:58.704Z,48.81
2023-09-03T23:48:27.094Z,49.04
2023-09-03T23:50:55.028Z,49.34
2023-09-03T23:53:23.427Z,48.68
2023-09-03T23:55:55.472Z,49.21
2023-09-03T23:58:23.720Z,50.04
